Time;durP1;ratioP1;P1;durP2;ratioP2;P2;SDS_P1;SDS_P2;PMS_P1;PMS_P2;Temp;Humidity;BMP_temperature;BMP_pressure;BME280_temperature;BME280_humidity;BME280_pressure;Samples;Min_cycle;Max_cycle;Signal;HPM_P1;HPM_P2
2023/07/03 00:00:01;;;;;;;13.33;4.73;;;17.30;96.20;;;;;;4943413;28;20969;-72
2023/07/03 00:02:27;;;;;;;5.60;4.53;;;17.40;96.20;;;;;;4938114;28;20450;-71
2023/07/03 00:04:53;;;;;;;6.33;3.70;;;17.40;95.50;;;;;;4945973;29;20449;-71
2023/07/03 00:07:19;;;;;;;10.33;3.80;;;17.50;95.50;;;;;;4942161;29;20210;-71
2023/07/03 00:09:44;;;;;;;7.57;4.40;;;17.40;95.20;;;;;;4945501;28;20195;-71
2023/07/03 00:12:11;;;;;;;8.83;4.03;;;17.30;95.80;;;;;;4943315;29;20824;-71
2023/07/03 00:14:37;;;;;;;5.50;3.60;;;17.20;95.60;;;;;;4945888;29;20206;-71
2023/07/03 00:17:03;;;;;;;7.43;3.97;;;17.10;96.70;;;;;;4941649;29;20461;-71
2023/07/03 00:19:30;;;;;;;12.33;5.00;;;17.20;96.30;;;;;;4945224;29;20465;-71
2023/07/03 00:22:00;;;;;;;6.77;3.60;;;17.20;96.20;;;;;;4944937;28;20505;-71
2023/07/03 00:24:26;;;;;;;9.50;5.30;;;17.10;96.40;;;;;;4942396;29;20533;-71
2023/07/03 00:26:52;;;;;;;6.43;4.73;;;17.00;96.90;;;;;;4938898;29;20444;-72
2023/07/03 00:29:18;;;;;;;9.40;5.17;;;16.90;96.90;;;;;;4945214;29;20498;-72
2023/07/03 00:31:43;;;;;;;9.33;3.47;;;16.90;97.20;;;;;;4941133;29;21150;-72
2023/07/03 00:34:09;;;;;;;12.07;4.70;;;16.70;98.00;;;;;;4944961;29;20570;-70
2023/07/03 00:36:34;;;;;;;7.93;4.47;;;16.60;98.50;;;;;;4942400;29;20216;-72
2023/07/03 00:39:00;;;;;;;7.20;3.87;;;16.40;99.10;;;;;;4944022;28;20186;-71
2023/07/03 00:41:26;;;;;;;5.30;4.07;;;16.40;99.40;;;;;;4942344;29;20197;-72
2023/07/03 00:43:52;;;;;;;7.40;3.80;;;16.40;99.30;;;;;;4946286;29;20323;-72
2023/07/03 00:46:17;;;;;;;6.80;4.20;;;16.40;99.50;;;;;;4941020;29;20345;-72
2023/07/03 00:48:44;;;;;;;9.00;4.87;;;16.30;99.90;;;;;;4944762;29;20484;-72
2023/07/03 00:51:11;;;;;;;7.90;4.57;;;16.30;99.90;;;;;;4938912;29;20199;-72
2023/07/03 00:53:36;;;;;;;12.00;4.43;;;16.30;99.90;;;;;;4944984;29;20469;-72
2023/07/03 00:56:05;;;;;;;10.57;4.07;;;16.20;99.90;;;;;;4941368;29;20481;-73
2023/07/03 00:58:34;;;;;;;8.90;4.30;;;16.10;99.90;;;;;;4945586;28;20175;-71
2023/07/03 01:01:23;;;;;;;7.60;4.40;;;16.00;99.90;;;;;;4941227;29;20438;-72
2023/07/03 01:03:56;;;;;;;15.17;4.80;;;16.10;99.90;;;;;;4945237;29;20431;-72
2023/07/03 01:06:28;;;;;;;10.00;5.10;;;16.00;99.90;;;;;;4941616;28;20967;-72
2023/07/03 01:08:57;;;;;;;6.70;4.30;;;16.00;99.90;;;;;;4943222;29;20460;-72
2023/07/03 01:11:24;;;;;;;10.60;4.50;;;16.00;99.90;;;;;;4942308;29;20450;-72
2023/07/03 01:13:55;;;;;;;6.53;3.80;;;15.90;99.90;;;;;;4946677;29;20461;-71
2023/07/03 01:16:20;;;;;;;9.00;5.23;;;16.00;99.90;;;;;;4939791;29;20474;-71
2023/07/03 01:18:48;;;;;;;7.30;3.90;;;15.90;99.90;;;;;;4946064;29;21318;-72
2023/07/03 01:21:36;;;;;;;6.33;4.13;;;15.90;99.90;;;;;;4942543;28;20279;-71
2023/07/03 01:24:10;;;;;;;10.53;4.17;;;15.90;99.90;;;;;;4942189;29;20541;-72
2023/07/03 01:26:37;;;;;;;6.33;3.80;;;15.80;99.90;;;;;;4940542;29;20453;-71
2023/07/03 01:29:04;;;;;;;7.13;4.20;;;15.80;99.90;;;;;;4945265;29;20437;-71
2023/07/03 01:31:31;;;;;;;12.70;5.57;;;15.90;99.90;;;;;;4940517;29;20841;-71
2023/07/03 01:33:59;;;;;;;5.57;4.07;;;15.80;99.90;;;;;;4946830;28;20446;-71
2023/07/03 01:36:27;;;;;;;6.27;4.20;;;15.80;99.90;;;;;;4941152;29;20474;-70
2023/07/03 01:38:54;;;;;;;6.57;3.93;;;15.90;99.90;;;;;;4945721;28;20426;-71
2023/07/03 01:41:20;;;;;;;14.10;4.27;;;15.80;99.90;;;;;;4938503;28;20526;-71
2023/07/03 01:43:46;;;;;;;9.50;5.40;;;15.70;99.90;;;;;;4944322;28;21048;-72
2023/07/03 01:46:13;;;;;;;11.07;4.37;;;15.80;99.90;;;;;;4940708;28;20461;-71
2023/07/03 01:48:39;;;;;;;8.30;3.97;;;15.70;99.90;;;;;;4945442;28;20913;-72
2023/07/03 01:51:10;;;;;;;7.57;4.37;;;15.70;99.90;;;;;;4940469;28;20456;-71
2023/07/03 01:53:48;;;;;;;9.10;4.70;;;15.70;99.90;;;;;;4944523;28;20218;-70
2023/07/03 01:56:25;;;;;;;9.67;4.50;;;15.60;99.90;;;;;;4939811;29;20965;-71
2023/07/03 01:58:58;;;;;;;11.13;4.33;;;15.50;99.90;;;;;;4944766;28;20789;-71
2023/07/03 02:01:47;;;;;;;7.93;4.87;;;15.40;99.90;;;;;;4940475;28;20459;-72
2023/07/03 02:04:24;;;;;;;7.60;3.97;;;15.30;99.90;;;;;;4940962;29;20438;-71
2023/07/03 02:06:51;;;;;;;13.50;4.33;;;15.30;99.90;;;;;;4942501;28;20441;-71
2023/07/03 02:09:18;;;;;;;12.77;4.30;;;15.30;99.90;;;;;;4944144;28;20517;-71
2023/07/03 02:11:46;;;;;;;9.93;4.47;;;15.30;99.90;;;;;;4942498;28;20525;-72
2023/07/03 02:14:12;;;;;;;11.03;4.87;;;15.20;99.90;;;;;;4944141;28;20450;-71
2023/07/03 02:16:41;;;;;;;8.50;3.50;;;15.20;99.90;;;;;;4942636;28;20545;-72
2023/07/03 02:19:08;;;;;;;11.37;4.40;;;15.30;99.90;;;;;;4944018;28;20989;-71
2023/07/03 02:21:39;;;;;;;5.77;3.73;;;15.30;99.90;;;;;;4945393;28;21023;-72
2023/07/03 02:24:05;;;;;;;10.63;5.00;;;15.40;99.90;;;;;;4942287;29;20454;-72
2023/07/03 02:26:30;;;;;;;9.50;3.77;;;15.40;99.90;;;;;;4944056;28;20454;-71
2023/07/03 02:28:56;;;;;;;13.30;4.07;;;15.40;99.90;;;;;;4944322;29;20976;-72
2023/07/03 02:31:21;;;;;;;10.93;4.20;;;15.40;99.90;;;;;;4944778;28;20202;-71
2023/07/03 02:33:47;;;;;;;7.47;4.37;;;15.40;99.90;;;;;;4943073;29;20218;-71
2023/07/03 02:36:12;;;;;;;14.50;4.97;;;15.40;99.90;;;;;;4944246;29;20681;-70
2023/07/03 02:38:38;;;;;;;9.57;4.70;;;15.30;99.90;;;;;;4943486;29;20206;-71
2023/07/03 02:41:04;;;;;;;9.00;4.93;;;15.40;99.90;;;;;;4943308;29;20962;-71
2023/07/03 02:43:30;;;;;;;8.70;4.73;;;15.40;99.90;;;;;;4944348;29;20194;-71
2023/07/03 02:46:03;;;;;;;9.33;5.80;;;15.30;99.90;;;;;;4944561;29;20186;-70
2023/07/03 02:48:28;;;;;;;13.60;4.83;;;15.30;99.90;;;;;;4938430;29;20440;-71
2023/07/03 02:50:54;;;;;;;10.87;4.50;;;15.30;99.90;;;;;;4944534;29;20442;-71
2023/07/03 02:53:20;;;;;;;9.50;5.10;;;15.40;99.90;;;;;;4942276;29;20202;-71
2023/07/03 02:55:49;;;;;;;10.80;5.03;;;15.40;99.90;;;;;;4941694;29;20193;-72
2023/07/03 02:58:17;;;;;;;10.60;4.33;;;15.30;99.90;;;;;;4940899;28;20709;-71
2023/07/03 03:00:42;;;;;;;12.67;4.60;;;15.40;99.90;;;;;;4943534;28;20567;-72
2023/07/03 03:03:08;;;;;;;8.97;4.50;;;15.40;99.90;;;;;;4943053;28;20480;-72
2023/07/03 03:05:33;;;;;;;12.67;4.57;;;15.40;99.90;;;;;;4943382;29;20201;-72
2023/07/03 03:07:59;;;;;;;11.23;4.83;;;15.20;99.90;;;;;;4937623;29;20199;-72
2023/07/03 03:10:24;;;;;;;10.70;4.80;;;15.20;99.90;;;;;;4937084;28;20211;-71
2023/07/03 03:12:50;;;;;;;10.60;4.00;;;15.20;99.90;;;;;;4940598;28;20257;-70
2023/07/03 03:15:18;;;;;;;12.27;4.60;;;15.30;99.90;;;;;;4939805;29;20523;-71
2023/07/03 03:17:44;;;;;;;11.30;4.93;;;15.20;99.90;;;;;;4941901;28;20638;-71
2023/07/03 03:20:13;;;;;;;12.37;5.77;;;15.20;99.90;;;;;;4941834;28;20549;-71
2023/07/03 03:22:39;;;;;;;8.07;5.70;;;15.20;99.90;;;;;;4945680;29;20437;-71
2023/07/03 03:25:06;;;;;;;15.37;4.87;;;15.20;99.90;;;;;;4941854;29;20434;-72
2023/07/03 03:27:31;;;;;;;4.60;4.20;;;15.20;99.90;;;;;;4944350;29;20450;-72
2023/07/03 03:29:57;;;;;;;11.43;4.83;;;15.20;99.90;;;;;;4942302;28;20469;-72
2023/07/03 03:32:23;;;;;;;9.67;3.60;;;15.10;99.90;;;;;;4943105;29;20190;-72
2023/07/03 03:34:50;;;;;;;10.40;4.33;;;15.10;99.90;;;;;;4942256;29;20209;-72
2023/07/03 03:37:15;;;;;;;14.00;5.83;;;15.10;99.90;;;;;;4941437;29;20220;-71
2023/07/03 03:39:41;;;;;;;8.23;5.20;;;15.00;99.90;;;;;;4945343;28;21088;-71
2023/07/03 03:42:09;;;;;;;11.27;5.00;;;15.00;99.90;;;;;;4942395;28;20513;-71
2023/07/03 03:44:35;;;;;;;14.17;5.10;;;15.00;99.90;;;;;;4944738;29;20233;-71
2023/07/03 03:47:01;;;;;;;9.87;5.27;;;14.90;99.90;;;;;;4938370;28;20496;-72
2023/07/03 03:49:26;;;;;;;10.77;5.30;;;14.90;99.90;;;;;;4942158;28;20430;-71
2023/07/03 03:51:52;;;;;;;12.83;4.90;;;14.90;99.90;;;;;;4941237;29;20194;-74
2023/07/03 03:54:19;;;;;;;15.50;5.73;;;15.00;99.90;;;;;;4941626;28;20857;-74
2023/07/03 03:56:44;;;;;;;6.90;4.83;;;15.00;99.90;;;;;;4940202;29;20566;-72
2023/07/03 03:59:10;;;;;;;15.37;6.13;;;15.00;99.90;;;;;;4944358;29;20453;-73
2023/07/03 04:01:35;;;;;;;14.80;4.70;;;15.00;99.90;;;;;;4940811;29;20191;-72
2023/07/03 04:04:01;;;;;;;13.00;5.23;;;14.90;99.90;;;;;;4942121;29;20891;-72
2023/07/03 04:06:27;;;;;;;11.20;4.97;;;15.00;99.90;;;;;;4942722;29;20680;-72
2023/07/03 04:08:52;;;;;;;10.90;5.17;;;15.00;99.90;;;;;;4942931;29;20797;-72
2023/07/03 04:11:18;;;;;;;11.00;4.80;;;15.10;99.90;;;;;;4943125;29;20232;-72
2023/07/03 04:13:43;;;;;;;13.50;4.20;;;15.10;99.90;;;;;;4942871;28;20198;-72
2023/07/03 04:16:09;;;;;;;11.80;5.40;;;15.10;99.90;;;;;;4939304;28;20210;-72
2023/07/03 04:18:35;;;;;;;11.53;4.87;;;15.10;99.90;;;;;;4945417;29;20234;-72
2023/07/03 04:21:01;;;;;;;14.60;5.67;;;15.00;99.90;;;;;;4947127;28;20445;-72
2023/07/03 04:23:27;;;;;;;13.13;5.03;;;15.10;99.90;;;;;;4941907;29;20820;-72
2023/07/03 04:25:53;;;;;;;14.97;6.43;;;15.10;99.90;;;;;;4945339;29;20206;-71
2023/07/03 04:28:21;;;;;;;11.73;5.87;;;15.10;99.90;;;;;;4946189;29;20854;-72
2023/07/03 04:30:47;;;;;;;6.97;4.30;;;15.20;99.90;;;;;;4946002;28;20528;-72
2023/07/03 04:33:13;;;;;;;13.43;5.40;;;15.30;99.90;;;;;;4946598;28;21045;-71
2023/07/03 04:35:38;;;;;;;14.07;4.37;;;15.40;99.90;;;;;;4946370;28;20450;-71
2023/07/03 04:38:04;;;;;;;9.73;5.23;;;15.40;99.90;;;;;;4946190;29;20465;-71
2023/07/03 04:40:30;;;;;;;12.87;5.00;;;15.50;99.90;;;;;;4945585;29;21231;-71
2023/07/03 04:42:56;;;;;;;11.40;5.43;;;15.60;99.90;;;;;;4946401;29;20410;-72
2023/07/03 04:45:24;;;;;;;14.77;5.27;;;15.70;99.90;;;;;;4946186;28;21034;-72
2023/07/03 04:47:50;;;;;;;11.67;5.47;;;15.80;99.90;;;;;;4946077;28;20170;-71
2023/07/03 04:50:17;;;;;;;14.33;7.13;;;15.90;99.90;;;;;;4946400;28;20430;-71
2023/07/03 04:52:47;;;;;;;9.80;5.70;;;16.00;99.90;;;;;;4947606;28;20438;-71
2023/07/03 04:55:13;;;;;;;15.83;5.30;;;16.20;99.90;;;;;;4945484;29;20441;-71
2023/07/03 04:57:40;;;;;;;11.63;5.73;;;16.30;99.90;;;;;;4947914;29;20883;-72
2023/07/03 05:00:14;;;;;;;13.13;6.67;;;16.30;99.90;;;;;;4942022;28;20198;-72
2023/07/03 05:02:41;;;;;;;19.80;6.50;;;16.40;99.90;;;;;;4945187;29;20422;-72
2023/07/03 05:05:07;;;;;;;11.30;4.87;;;16.50;99.90;;;;;;4940867;29;20953;-72
2023/07/03 05:07:32;;;;;;;18.00;6.50;;;16.60;99.90;;;;;;4946999;29;20501;-72
2023/07/03 05:09:58;;;;;;;16.67;5.47;;;16.60;99.90;;;;;;4944155;29;21016;-72
2023/07/03 05:12:24;;;;;;;8.43;5.60;;;16.70;99.90;;;;;;4947136;29;20199;-71
2023/07/03 05:14:49;;;;;;;13.03;5.33;;;16.90;99.90;;;;;;4942255;29;20201;-72
2023/07/03 05:17:15;;;;;;;10.00;4.53;;;17.10;99.90;;;;;;4947178;29;20214;-72
2023/07/03 05:19:40;;;;;;;13.60;5.50;;;17.20;99.90;;;;;;4943413;29;20579;-72
2023/07/03 05:22:06;;;;;;;11.53;5.40;;;17.30;99.90;;;;;;4947185;29;20195;-72
2023/07/03 05:24:31;;;;;;;12.63;4.90;;;17.10;99.90;;;;;;4940661;29;20598;-72
2023/07/03 05:26:57;;;;;;;9.03;3.87;;;17.10;99.90;;;;;;4946144;28;20673;-72
2023/07/03 05:29:23;;;;;;;10.03;4.93;;;17.30;99.90;;;;;;4941712;29;20194;-72
2023/07/03 05:31:48;;;;;;;17.60;6.60;;;17.10;99.90;;;;;;4946556;29;20181;-72
2023/07/03 05:34:14;;;;;;;14.97;5.87;;;17.10;99.90;;;;;;4941271;28;20618;-71
2023/07/03 05:36:40;;;;;;;17.10;5.60;;;17.00;99.90;;;;;;4946833;29;20233;-71
2023/07/03 05:39:05;;;;;;;13.40;5.70;;;16.90;99.90;;;;;;4943013;29;20416;-72
2023/07/03 05:41:31;;;;;;;17.87;6.63;;;17.10;99.90;;;;;;4946204;29;20178;-72
2023/07/03 05:43:56;;;;;;;14.50;5.83;;;17.20;99.90;;;;;;4940760;29;20534;-73
2023/07/03 05:46:22;;;;;;;15.10;6.33;;;17.30;99.90;;;;;;4947086;29;20194;-72
2023/07/03 05:48:49;;;;;;;13.43;5.90;;;17.50;99.90;;;;;;4935817;29;20289;-71
2023/07/03 05:51:14;;;;;;;15.90;5.07;;;17.40;99.90;;;;;;4940859;28;20554;-71
2023/07/03 05:53:40;;;;;;;13.67;5.60;;;17.50;99.90;;;;;;4943040;29;20449;-71
2023/07/03 05:56:05;;;;;;;8.70;5.10;;;17.40;99.90;;;;;;4946448;29;20283;-72
2023/07/03 05:58:32;;;;;;;13.97;5.37;;;17.20;99.90;;;;;;4941472;29;20206;-72
2023/07/03 06:00:58;;;;;;;20.57;5.17;;;17.20;99.90;;;;;;4929676;28;20202;-72
2023/07/03 06:03:25;;;;;;;12.83;6.10;;;17.20;99.90;;;;;;4945645;28;20438;-72
2023/07/03 06:05:51;;;;;;;9.40;4.60;;;17.20;99.90;;;;;;4933673;28;20454;-72
2023/07/03 06:08:17;;;;;;;15.10;5.47;;;17.30;99.90;;;;;;4944771;29;20446;-72
2023/07/03 06:10:45;;;;;;;16.30;4.63;;;17.10;99.90;;;;;;4935836;28;20451;-72
2023/07/03 06:13:10;;;;;;;15.50;6.40;;;17.00;99.90;;;;;;4944009;29;21102;-72
2023/07/03 06:15:36;;;;;;;15.73;5.00;;;16.90;99.90;;;;;;4939905;29;20442;-72
2023/07/03 06:18:05;;;;;;;15.87;6.40;;;17.00;99.90;;;;;;4945217;29;20214;-71
2023/07/03 06:20:31;;;;;;;18.50;6.17;;;17.00;99.90;;;;;;4941884;28;20748;-72
2023/07/03 06:22:56;;;;;;;17.40;5.47;;;17.00;99.90;;;;;;4938335;28;20446;-72
2023/07/03 06:25:22;;;;;;;20.30;6.30;;;17.00;99.90;;;;;;4943463;29;20457;-71
2023/07/03 06:27:48;;;;;;;8.67;3.87;;;17.00;99.90;;;;;;4937437;28;20202;-73
2023/07/03 06:30:14;;;;;;;12.97;5.40;;;17.50;99.90;;;;;;4941558;29;20245;-72
2023/07/03 06:32:40;;;;;;;11.47;5.13;;;18.00;99.90;;;;;;4944268;28;20454;-72
2023/07/03 06:35:06;;;;;;;12.63;6.10;;;18.40;99.90;;;;;;4945179;29;21109;-71
2023/07/03 06:37:32;;;;;;;18.63;5.60;;;18.80;99.90;;;;;;4946035;28;20934;-72
2023/07/03 06:39:58;;;;;;;7.23;4.90;;;19.50;99.90;;;;;;4944606;29;20600;-71
2023/07/03 06:42:24;;;;;;;8.40;4.97;;;19.90;99.90;;;;;;4938908;28;20562;-72
2023/07/03 06:44:49;;;;;;;12.30;5.60;;;20.20;99.90;;;;;;4945209;28;20198;-72
2023/07/03 06:47:15;;;;;;;11.10;4.57;;;19.80;99.90;;;;;;4939350;29;20187;-71
2023/07/03 06:49:41;;;;;;;12.03;5.37;;;20.40;99.90;;;;;;4946261;29;20261;-72
2023/07/03 06:52:08;;;;;;;11.30;5.03;;;20.70;99.90;;;;;;4933197;29;20198;-72
2023/07/03 06:54:34;;;;;;;11.33;5.20;;;21.30;99.90;;;;;;4937209;29;20199;-72
2023/07/03 06:56:59;;;;;;;10.83;6.17;;;21.30;99.90;;;;;;4942447;29;20536;-72
2023/07/03 06:59:25;;;;;;;13.00;5.70;;;20.70;99.90;;;;;;4934675;29;20194;-73
2023/07/03 07:01:51;;;;;;;15.07;6.10;;;20.50;99.90;;;;;;4941193;29;20513;-72
2023/07/03 07:04:16;;;;;;;6.60;4.40;;;20.50;99.90;;;;;;4945361;29;20430;-72
2023/07/03 07:06:42;;;;;;;11.37;5.33;;;21.00;99.90;;;;;;4941800;29;20858;-72
2023/07/03 07:09:08;;;;;;;12.57;5.27;;;21.10;99.90;;;;;;4945049;28;20187;-72
2023/07/03 07:11:35;;;;;;;16.97;6.03;;;20.70;99.90;;;;;;4937270;29;20225;-71
2023/07/03 07:14:04;;;;;;;10.70;4.90;;;20.50;99.90;;;;;;4944515;28;20214;-71
2023/07/03 07:16:34;;;;;;;10.53;6.00;;;20.60;99.90;;;;;;4939623;29;20466;-71
2023/07/03 07:19:06;;;;;;;12.43;5.40;;;20.80;99.90;;;;;;4943930;29;20500;-72
2023/07/03 07:21:34;;;;;;;11.23;5.40;;;21.10;99.90;;;;;;4936863;29;21055;-72
2023/07/03 07:24:13;;;;;;;12.40;6.20;;;21.10;99.90;;;;;;4939631;29;20425;-71
2023/07/03 07:26:39;;;;;;;11.40;4.93;;;21.10;99.90;;;;;;4938517;28;20506;-71
2023/07/03 07:29:05;;;;;;;9.40;4.43;;;21.20;99.90;;;;;;4939686;28;20434;-72
2023/07/03 07:31:36;;;;;;;11.00;5.37;;;21.10;99.90;;;;;;4940783;28;21147;-71
2023/07/03 07:34:06;;;;;;;13.83;5.80;;;20.80;99.90;;;;;;4944366;29;20783;-72
2023/07/03 07:36:32;;;;;;;12.07;6.07;;;20.40;99.90;;;;;;4940151;28;20470;-71
2023/07/03 07:38:59;;;;;;;9.10;5.50;;;20.40;99.90;;;;;;4944799;28;20484;-71
2023/07/03 07:41:25;;;;;;;9.50;5.07;;;20.70;99.90;;;;;;4941186;28;20853;-71
2023/07/03 07:43:51;;;;;;;10.13;5.30;;;21.10;99.90;;;;;;4935943;28;20512;-71
2023/07/03 07:46:18;;;;;;;12.67;5.90;;;20.50;99.90;;;;;;4945073;28;20195;-71
2023/07/03 07:48:46;;;;;;;6.90;5.67;;;20.80;99.90;;;;;;4941200;28;20418;-71
2023/07/03 07:51:12;;;;;;;8.73;4.53;;;21.60;99.90;;;;;;4947311;28;20457;-71
2023/07/03 07:53:38;;;;;;;14.40;5.83;;;21.80;99.90;;;;;;4941323;29;21162;-71
2023/07/03 07:56:07;;;;;;;10.90;5.30;;;21.60;99.90;;;;;;4948917;29;20508;-72
2023/07/03 07:58:32;;;;;;;9.40;5.33;;;21.50;99.90;;;;;;4943793;28;20478;-71
2023/07/03 08:00:58;;;;;;;10.93;5.67;;;21.60;99.90;;;;;;4946973;28;21026;-72
2023/07/03 08:03:25;;;;;;;6.90;4.67;;;21.40;99.90;;;;;;4934878;29;20187;-72
2023/07/03 08:05:56;;;;;;;8.10;5.53;;;21.80;99.90;;;;;;4946062;28;20174;-72
2023/07/03 08:08:21;;;;;;;4.60;4.20;;;22.20;99.90;;;;;;4939989;29;20948;-71
2023/07/03 08:10:54;;;;;;;7.50;4.43;;;22.10;99.90;;;;;;4944888;29;20418;-71
2023/07/03 08:13:20;;;;;;;7.67;5.00;;;22.40;99.30;;;;;;4938056;29;20274;-70
2023/07/03 08:15:46;;;;;;;15.20;5.80;;;21.70;98.60;;;;;;4942842;29;20439;-71
2023/07/03 08:18:12;;;;;;;12.53;5.80;;;21.10;99.90;;;;;;4942223;29;20550;-73
2023/07/03 08:20:38;;;;;;;8.10;4.73;;;20.80;99.90;;;;;;4948422;28;20227;-72
2023/07/03 08:23:03;;;;;;;15.67;6.10;;;20.80;99.90;;;;;;4940190;29;20453;-71
2023/07/03 08:25:29;;;;;;;11.50;5.30;;;20.50;99.90;;;;;;4947616;29;20201;-72
2023/07/03 08:27:57;;;;;;;7.50;4.43;;;20.50;99.90;;;;;;4941317;29;20198;-71
2023/07/03 08:30:23;;;;;;;8.73;4.13;;;20.40;99.90;;;;;;4947196;29;20190;-74
2023/07/03 08:32:49;;;;;;;8.20;4.80;;;20.70;99.90;;;;;;4947822;29;20956;-73
2023/07/03 08:35:16;;;;;;;5.60;4.07;;;20.60;99.90;;;;;;4944384;29;20736;-71
2023/07/03 08:37:42;;;;;;;11.53;5.00;;;20.50;99.90;;;;;;4947952;28;20206;-71
2023/07/03 08:40:09;;;;;;;9.70;5.10;;;20.50;99.90;;;;;;4942908;29;20517;-72
2023/07/03 08:42:56;;;;;;;13.47;6.83;;;20.50;99.90;;;;;;4947176;28;20642;-71
2023/07/03 08:45:42;;;;;;;7.57;5.30;;;20.70;99.90;;;;;;4947972;29;20446;-73
2023/07/03 08:48:14;;;;;;;14.93;5.37;;;20.60;99.90;;;;;;4943284;29;20437;-72
2023/07/03 08:50:44;;;;;;;9.90;5.17;;;20.70;99.90;;;;;;4945725;29;20930;-73
2023/07/03 08:53:12;;;;;;;8.00;5.40;;;20.50;99.90;;;;;;4944620;29;20961;-72
2023/07/03 08:58:41;;;;;;;8.20;4.87;;;21.20;99.90;;;;;;4944490;28;21008;-73
2023/07/03 09:01:15;;;;;;;9.57;4.70;;;21.30;98.50;;;;;;4946792;28;20443;-71
2023/07/03 09:04:02;;;;;;;5.10;3.60;;;21.40;97.20;;;;;;4946986;29;20469;-71
2023/07/03 09:06:47;;;;;;;6.47;4.47;;;21.60;97.20;;;;;;4947442;29;20574;-74
2023/07/03 09:09:22;;;;;;;9.83;4.50;;;22.40;96.00;;;;;;4946193;29;20650;-72
2023/07/03 09:12:04;;;;;;;7.03;4.70;;;22.90;93.50;;;;;;4934876;28;20469;-72
2023/07/03 09:14:37;;;;;;;7.63;4.03;;;22.20;93.60;;;;;;4946872;28;20918;-73
2023/07/03 09:17:07;;;;;;;6.67;3.83;;;22.20;92.00;;;;;;4936436;29;20476;-72
2023/07/03 09:19:34;;;;;;;7.13;4.00;;;22.60;90.80;;;;;;4945415;29;20453;-72
2023/07/03 09:22:03;;;;;;;7.83;4.60;;;22.80;87.20;;;;;;4942853;29;20945;-73
2023/07/03 09:24:37;;;;;;;4.43;3.63;;;22.90;85.80;;;;;;4942353;29;20497;-71
2023/07/03 09:27:13;;;;;;;6.43;4.50;;;22.90;85.10;;;;;;4939562;28;21208;-72
2023/07/03 09:29:40;;;;;;;2.70;2.57;;;23.40;83.70;;;;;;4944411;29;20424;-72
2023/07/03 09:32:05;;;;;;;5.50;3.60;;;24.40;76.70;;;;;;4942723;28;20450;-72
2023/07/03 09:35:02;;;;;;;3.90;3.43;;;24.40;70.30;;;;;;4943616;29;20460;-73
2023/07/03 09:37:28;;;;;;;4.80;3.30;;;23.70;70.00;;;;;;4940837;29;20737;-71
2023/07/03 09:50:27;;;;;;;5.10;2.73;;;22.70;69.90;;;;;;4941090;29;20968;-72
2023/07/03 09:56:35;;;;;;;3.73;2.70;;;25.00;63.40;;;;;;4932409;29;20441;-72
2023/07/03 09:59:03;;;;;;;6.10;3.53;;;25.90;60.80;;;;;;4939988;28;20487;-74
2023/07/03 10:01:31;;;;;;;4.23;3.30;;;26.10;58.00;;;;;;4934210;29;20443;-74
2023/07/03 10:04:17;;;;;;;3.10;2.80;;;26.60;58.80;;;;;;4944045;29;20425;-75
2023/07/03 10:07:02;;;;;;;5.50;3.70;;;27.80;56.50;;;;;;4937584;29;20441;-75
2023/07/03 10:16:14;;;;;;;5.87;3.60;;;26.00;55.50;;;;;;4923440;28;20517;-75
2023/07/03 10:18:46;;;;;;;4.90;3.00;;;24.60;55.60;;;;;;4941231;28;20957;-74
2023/07/03 10:21:16;;;;;;;3.77;3.30;;;24.20;56.70;;;;;;4940212;28;20442;-74
2023/07/03 10:23:44;;;;;;;6.03;2.80;;;23.90;56.50;;;;;;4941769;29;20423;-74
2023/07/03 10:26:42;;;;;;;6.30;3.90;;;24.00;57.40;;;;;;4938306;28;20442;-74
2023/07/03 10:39:21;;;;;;;3.23;2.87;;;23.80;57.90;;;;;;4939009;28;20545;-74
2023/07/03 10:45:11;;;;;;;4.10;3.70;;;23.30;57.00;;;;;;4942231;29;20831;-74
2023/07/03 10:47:40;;;;;;;3.30;3.00;;;22.70;57.50;;;;;;4931047;28;20831;-73
2023/07/03 10:50:07;;;;;;;4.07;2.97;;;22.80;58.30;;;;;;4944483;28;20432;-74
2023/07/03 10:52:54;;;;;;;4.00;3.30;;;23.00;58.20;;;;;;4941502;28;21180;-73
2023/07/03 10:55:40;;;;;;;6.57;3.30;;;24.20;58.50;;;;;;4943955;29;20457;-72
2023/07/03 11:08:39;;;;;;;3.17;2.90;;;25.90;54.20;;;;;;4932561;29;20477;-72
2023/07/03 11:15:14;;;;;;;3.53;3.23;;;25.70;54.20;;;;;;4944302;29;20417;-72
2023/07/03 11:35:33;;;;;;;5.40;3.43;;;26.10;54.80;;;;;;4934572;28;20456;-71
2023/07/03 11:38:10;;;;;;;4.00;3.17;;;25.20;56.20;;;;;;4948053;29;20457;-72
2023/07/03 11:44:29;;;;;;;5.77;5.13;;;25.00;56.80;;;;;;4947335;29;21065;-72
2023/07/03 11:47:03;;;;;;;6.30;3.83;;;25.00;56.40;;;;;;4940764;29;20485;-71
2023/07/03 11:56:36;;;;;;;4.93;4.10;;;25.70;57.10;;;;;;4940264;29;20586;-72
2023/07/03 11:59:25;;;;;;;7.43;4.20;;;24.90;57.70;;;;;;4943188;29;20559;-71
2023/07/03 12:02:09;;;;;;;6.03;4.00;;;24.10;58.50;;;;;;4936357;29;20528;-70
2023/07/03 12:04:50;;;;;;;4.93;4.60;;;23.10;59.60;;;;;;4935813;29;20960;-72
2023/07/03 12:07:18;;;;;;;4.00;3.80;;;22.60;62.30;;;;;;4938632;29;20465;-71
2023/07/03 12:09:45;;;;;;;7.83;4.87;;;22.10;64.40;;;;;;4937921;29;20445;-70
2023/07/03 12:12:15;;;;;;;4.53;4.20;;;21.80;66.50;;;;;;4935740;29;20486;-72
2023/07/03 12:14:46;;;;;;;5.93;5.10;;;21.50;68.90;;;;;;4936118;29;20464;-70
2023/07/03 12:17:32;;;;;;;5.00;4.50;;;21.20;70.30;;;;;;4934088;29;20478;-70
2023/07/03 12:20:06;;;;;;;4.90;4.43;;;21.10;71.90;;;;;;4929457;29;20439;-71
2023/07/03 12:22:43;;;;;;;7.43;3.97;;;21.00;72.50;;;;;;4938523;29;20514;-70
2023/07/03 12:25:18;;;;;;;4.07;2.87;;;21.00;73.10;;;;;;4930761;29;20808;-70
2023/07/03 12:27:46;;;;;;;7.10;4.40;;;20.80;73.20;;;;;;4933860;29;20536;-71
2023/07/03 12:30:21;;;;;;;4.30;3.97;;;20.70;74.60;;;;;;4939172;29;20446;-70
2023/07/03 12:36:08;;;;;;;7.53;4.80;;;21.10;76.90;;;;;;4919349;28;20471;-71
2023/07/03 12:45:23;;;;;;;4.93;4.50;;;24.30;72.70;;;;;;4921752;29;20571;-72
2023/07/03 12:48:06;;;;;;;8.23;4.97;;;25.90;67.80;;;;;;4907286;29;20450;-72
2023/07/03 12:50:34;;;;;;;6.10;4.23;;;27.10;64.40;;;;;;4922704;29;20411;-72
2023/07/03 12:53:02;;;;;;;9.67;5.40;;;27.10;60.80;;;;;;4907934;29;20464;-72
2023/07/03 12:55:33;;;;;;;6.17;4.60;;;27.10;59.70;;;;;;4905785;29;20586;-72
2023/07/03 13:01:20;;;;;;;5.67;4.23;;;27.20;58.70;;;;;;4913529;29;20458;-72
2023/07/03 13:03:47;;;;;;;5.50;4.37;;;26.90;58.80;;;;;;4919268;29;21259;-71
2023/07/03 13:06:24;;;;;;;6.00;5.33;;;26.80;57.90;;;;;;4927061;29;20187;-72
2023/07/03 13:08:51;;;;;;;5.13;4.73;;;25.90;58.70;;;;;;4920253;29;20442;-72
2023/07/03 13:11:47;;;;;;;4.90;4.70;;;24.60;59.60;;;;;;4926479;29;20455;-72
2023/07/03 13:14:17;;;;;;;9.20;4.97;;;23.70;62.70;;;;;;4919552;29;20510;-73
2023/07/03 13:23:30;;;;;;;7.03;4.50;;;24.60;64.10;;;;;;4914263;28;20486;-72
2023/07/03 13:25:58;;;;;;;4.40;3.90;;;26.00;60.70;;;;;;4931319;29;20422;-72
2023/07/03 13:28:27;;;;;;;4.80;3.90;;;26.20;57.10;;;;;;4923167;29;21201;-71
2023/07/03 13:31:11;;;;;;;4.20;3.83;;;26.60;56.30;;;;;;4928419;29;20459;-72
2023/07/03 13:33:39;;;;;;;4.27;3.87;;;26.40;56.10;;;;;;4924888;29;21028;-73
2023/07/03 13:36:25;;;;;;;4.30;4.00;;;26.40;55.10;;;;;;4928787;28;20458;-72
2023/07/03 13:42:14;;;;;;;7.10;4.50;;;26.60;55.50;;;;;;4939678;29;20493;-72
2023/07/03 13:44:39;;;;;;;6.60;4.13;;;26.60;56.90;;;;;;4935031;28;20458;-71
2023/07/03 13:50:55;;;;;;;4.90;3.90;;;26.90;55.50;;;;;;4938524;29;20821;-73
2023/07/03 13:53:22;;;;;;;5.00;3.70;;;27.20;56.20;;;;;;4939872;29;20446;-73
2023/07/03 14:16:28;;;;;;;4.10;3.73;;;23.70;56.90;;;;;;4937057;28;20470;-72
2023/07/03 14:22:16;;;;;;;10.13;4.23;;;23.80;57.30;;;;;;4939372;28;20494;-71
2023/07/03 14:28:04;;;;;;;3.87;3.57;;;24.50;57.30;;;;;;4924504;28;20209;-72
2023/07/03 14:30:30;;;;;;;3.67;3.30;;;25.30;55.60;;;;;;4938948;28;22395;-72
2023/07/03 14:32:55;;;;;;;3.80;3.33;;;25.20;55.40;;;;;;4925678;29;20197;-70
2023/07/03 14:35:22;;;;;;;6.27;4.20;;;25.00;54.90;;;;;;4938901;28;20193;-72
2023/07/03 14:37:47;;;;;;;4.40;4.00;;;24.00;55.30;;;;;;4938604;28;20310;-72
2023/07/03 14:40:13;;;;;;;5.77;3.40;;;23.90;55.70;;;;;;4945223;28;20533;-73
2023/07/03 14:42:38;;;;;;;5.07;3.40;;;23.70;56.10;;;;;;4943803;29;20198;-72
2023/07/03 14:45:04;;;;;;;4.67;3.47;;;24.00;55.70;;;;;;4945183;29;20688;-71
2023/07/03 14:47:31;;;;;;;5.20;4.57;;;24.80;56.30;;;;;;4942911;29;20186;-73
2023/07/03 14:49:56;;;;;;;4.63;3.53;;;24.90;55.10;;;;;;4940646;29;20441;-70
2023/07/03 14:52:22;;;;;;;3.53;3.23;;;24.90;55.40;;;;;;4926098;29;20434;-71
2023/07/03 14:54:47;;;;;;;4.60;4.00;;;24.70;54.60;;;;;;4944382;29;20183;-73
2023/07/03 14:57:13;;;;;;;7.70;4.27;;;24.70;55.80;;;;;;4936386;28;20290;-72
2023/07/03 14:59:41;;;;;;;6.87;4.70;;;24.40;55.60;;;;;;4944712;28;20273;-74
2023/07/03 15:02:07;;;;;;;6.07;5.20;;;24.40;55.60;;;;;;4940706;29;20882;-71
2023/07/03 15:04:33;;;;;;;4.13;3.80;;;24.30;55.20;;;;;;4944043;29;20437;-73